sensor_id;sensor_type;location;lat;lon;timestamp;pressure;altitude;pressure_sealevel;temperature;humidity
42431;BME280;28070;47.462;19.036;2022-09-09T00:02:01;99901.88;;;18.35;92.68
42431;BME280;28070;47.462;19.036;2022-09-09T00:04:35;99906.50;;;18.33;94.72
42431;BME280;28070;47.462;19.036;2022-09-09T00:07:07;99908.50;;;18.29;93.35
42431;BME280;28070;47.462;19.036;2022-09-09T00:09:41;99906.81;;;18.28;92.48
42431;BME280;28070;47.462;19.036;2022-09-09T00:12:12;99894.41;;;18.27;91.95
42431;BME280;28070;47.462;19.036;2022-09-09T00:14:48;99893.03;;;18.21;94.16
42431;BME280;28070;47.462;19.036;2022-09-09T00:17:29;99896.06;;;18.17;93.93
42431;BME280;28070;47.462;19.036;2022-09-09T00:20:05;99904.38;;;18.12;94.74
42431;BME280;28070;47.462;19.036;2022-09-09T00:22:41;99915.69;;;18.16;95.38
42431;BME280;28070;47.462;19.036;2022-09-09T00:25:17;99916.53;;;18.16;95.26
42431;BME280;28070;47.462;19.036;2022-09-09T00:27:49;99910.34;;;18.16;95.85
42431;BME280;28070;47.462;19.036;2022-09-09T00:30:20;99916.66;;;18.15;95.96
42431;BME280;28070;47.462;19.036;2022-09-09T00:32:50;99911.53;;;18.12;96.50
42431;BME280;28070;47.462;19.036;2022-09-09T00:35:24;99908.34;;;18.07;97.45
42431;BME280;28070;47.462;19.036;2022-09-09T00:37:55;99907.59;;;18.05;95.93
42431;BME280;28070;47.462;19.036;2022-09-09T00:40:29;99908.88;;;18.12;95.45
42431;BME280;28070;47.462;19.036;2022-09-09T00:43:21;99911.97;;;18.18;94.13
42431;BME280;28070;47.462;19.036;2022-09-09T00:46:04;99918.28;;;18.17;95.25
42431;BME280;28070;47.462;19.036;2022-09-09T00:48:41;99909.72;;;18.12;95.38
42431;BME280;28070;47.462;19.036;2022-09-09T00:51:17;99914.53;;;18.07;96.13
42431;BME280;28070;47.462;19.036;2022-09-09T00:54:15;99911.13;;;18.05;96.10
42431;BME280;28070;47.462;19.036;2022-09-09T00:56:56;99909.31;;;18.06;95.27
42431;BME280;28070;47.462;19.036;2022-09-09T00:59:33;99919.66;;;18.10;94.31
42431;BME280;28070;47.462;19.036;2022-09-09T01:02:18;99934.00;;;18.09;94.62
42431;BME280;28070;47.462;19.036;2022-09-09T01:04:49;99934.84;;;18.10;95.26
42431;BME280;28070;47.462;19.036;2022-09-09T01:07:19;99936.03;;;18.06;96.52
42431;BME280;28070;47.462;19.036;2022-09-09T01:09:52;99945.22;;;18.02;97.38
42431;BME280;28070;47.462;19.036;2022-09-09T01:12:30;99939.88;;;18.02;97.31
42431;BME280;28070;47.462;19.036;2022-09-09T01:15:08;99945.44;;;17.99;97.91
42431;BME280;28070;47.462;19.036;2022-09-09T01:17:51;99957.09;;;17.98;97.90
42431;BME280;28070;47.462;19.036;2022-09-09T01:20:24;99946.28;;;17.99;98.41
42431;BME280;28070;47.462;19.036;2022-09-09T01:26:25;99953.44;;;17.99;97.37
42431;BME280;28070;47.462;19.036;2022-09-09T01:28:58;99954.94;;;18.03;96.64
42431;BME280;28070;47.462;19.036;2022-09-09T01:31:38;99957.59;;;18.03;97.07
42431;BME280;28070;47.462;19.036;2022-09-09T01:34:10;99955.91;;;18.02;96.62
42431;BME280;28070;47.462;19.036;2022-09-09T01:36:43;99946.84;;;18.04;95.57
42431;BME280;28070;47.462;19.036;2022-09-09T01:39:14;99947.78;;;18.03;96.98
42431;BME280;28070;47.462;19.036;2022-09-09T01:41:45;99936.66;;;17.97;98.52
42431;BME280;28070;47.462;19.036;2022-09-09T01:44:16;99945.75;;;17.94;99.86
42431;BME280;28070;47.462;19.036;2022-09-09T01:46:45;99940.53;;;17.92;99.96
42431;BME280;28070;47.462;19.036;2022-09-09T01:49:19;99947.78;;;17.90;100.00
42431;BME280;28070;47.462;19.036;2022-09-09T01:51:51;99947.59;;;17.93;100.00
42431;BME280;28070;47.462;19.036;2022-09-09T01:54:31;99963.72;;;18.05;100.00
42431;BME280;28070;47.462;19.036;2022-09-09T01:57:15;99958.56;;;18.14;98.34
42431;BME280;28070;47.462;19.036;2022-09-09T01:59:59;99952.59;;;18.23;96.90
42431;BME280;28070;47.462;19.036;2022-09-09T02:02:45;99939.97;;;18.26;94.04
42431;BME280;28070;47.462;19.036;2022-09-09T02:05:30;99937.19;;;18.27;93.38
42431;BME280;28070;47.462;19.036;2022-09-09T02:08:06;99928.00;;;18.31;92.70
42431;BME280;28070;47.462;19.036;2022-09-09T02:10:55;99936.13;;;18.30;92.54
42431;BME280;28070;47.462;19.036;2022-09-09T02:13:37;99936.44;;;18.25;94.77
42431;BME280;28070;47.462;19.036;2022-09-09T02:16:13;99942.22;;;18.19;95.92
42431;BME280;28070;47.462;19.036;2022-09-09T02:18:49;99950.38;;;18.17;89.12
42431;BME280;28070;47.462;19.036;2022-09-09T02:21:24;99954.41;;;18.23;91.20
42431;BME280;28070;47.462;19.036;2022-09-09T02:23:57;99941.78;;;18.25;91.55
42431;BME280;28070;47.462;19.036;2022-09-09T02:26:29;99949.81;;;18.25;93.30
42431;BME280;28070;47.462;19.036;2022-09-09T02:29:07;99947.34;;;18.22;92.29
42431;BME280;28070;47.462;19.036;2022-09-09T02:31:37;99947.69;;;18.17;93.30
42431;BME280;28070;47.462;19.036;2022-09-09T02:34:13;99945.88;;;18.18;94.86
42431;BME280;28070;47.462;19.036;2022-09-09T02:36:42;99943.50;;;18.13;95.25
42431;BME280;28070;47.462;19.036;2022-09-09T02:39:13;99952.81;;;18.08;96.54
42431;BME280;28070;47.462;19.036;2022-09-09T02:41:42;99953.97;;;18.04;96.70
42431;BME280;28070;47.462;19.036;2022-09-09T02:44:13;99955.72;;;18.05;96.26
42431;BME280;28070;47.462;19.036;2022-09-09T02:47:01;99956.88;;;18.01;95.07
42431;BME280;28070;47.462;19.036;2022-09-09T02:49:41;99948.00;;;18.00;95.70
42431;BME280;28070;47.462;19.036;2022-09-09T02:52:14;99952.38;;;18.01;96.91
42431;BME280;28070;47.462;19.036;2022-09-09T02:54:43;99956.13;;;17.99;97.19
42431;BME280;28070;47.462;19.036;2022-09-09T02:57:16;99965.09;;;17.98;96.76
42431;BME280;28070;47.462;19.036;2022-09-09T02:59:49;99961.69;;;17.96;95.60
42431;BME280;28070;47.462;19.036;2022-09-09T03:02:19;99971.63;;;17.93;95.79
42431;BME280;28070;47.462;19.036;2022-09-09T03:04:52;99970.00;;;17.91;96.35
42431;BME280;28070;47.462;19.036;2022-09-09T03:07:20;99974.91;;;17.84;95.88
42431;BME280;28070;47.462;19.036;2022-09-09T03:09:50;99975.44;;;17.89;96.48
42431;BME280;28070;47.462;19.036;2022-09-09T03:12:24;99976.41;;;17.88;94.60
42431;BME280;28070;47.462;19.036;2022-09-09T03:14:53;99970.97;;;17.90;95.00
42431;BME280;28070;47.462;19.036;2022-09-09T03:17:23;99968.41;;;17.88;93.64
42431;BME280;28070;47.462;19.036;2022-09-09T03:19:53;99976.31;;;17.90;94.75
42431;BME280;28070;47.462;19.036;2022-09-09T03:22:22;99976.53;;;17.87;95.63
42431;BME280;28070;47.462;19.036;2022-09-09T03:24:50;99982.09;;;17.84;93.96
42431;BME280;28070;47.462;19.036;2022-09-09T03:27:19;99980.50;;;17.81;92.94
42431;BME280;28070;47.462;19.036;2022-09-09T03:29:47;99973.22;;;17.83;92.34
42431;BME280;28070;47.462;19.036;2022-09-09T03:32:23;99976.63;;;17.85;90.34
42431;BME280;28070;47.462;19.036;2022-09-09T03:34:54;99973.97;;;17.85;89.39
42431;BME280;28070;47.462;19.036;2022-09-09T03:37:22;99977.50;;;17.86;89.64
42431;BME280;28070;47.462;19.036;2022-09-09T03:39:51;99974.91;;;17.84;90.97
42431;BME280;28070;47.462;19.036;2022-09-09T03:42:22;99974.81;;;17.86;92.11
42431;BME280;28070;47.462;19.036;2022-09-09T03:44:53;99980.28;;;17.84;94.09
42431;BME280;28070;47.462;19.036;2022-09-09T03:47:25;99973.44;;;17.80;94.66
42431;BME280;28070;47.462;19.036;2022-09-09T03:50:00;99982.50;;;17.78;96.87
42431;BME280;28070;47.462;19.036;2022-09-09T03:52:28;99992.31;;;17.77;96.51
42431;BME280;28070;47.462;19.036;2022-09-09T03:54:57;99994.03;;;17.78;96.71
42431;BME280;28070;47.462;19.036;2022-09-09T03:57:25;99991.47;;;17.77;97.20
42431;BME280;28070;47.462;19.036;2022-09-09T03:59:53;99979.56;;;17.68;99.58
42431;BME280;28070;47.462;19.036;2022-09-09T04:02:22;99982.53;;;17.63;100.00
42431;BME280;28070;47.462;19.036;2022-09-09T04:04:51;99979.56;;;17.55;100.00
42431;BME280;28070;47.462;19.036;2022-09-09T04:07:20;99987.66;;;17.54;100.00
42431;BME280;28070;47.462;19.036;2022-09-09T04:09:48;99983.69;;;17.47;100.00
42431;BME280;28070;47.462;19.036;2022-09-09T04:12:17;99985.81;;;17.42;100.00
42431;BME280;28070;47.462;19.036;2022-09-09T04:14:45;99988.78;;;17.37;100.00
42431;BME280;28070;47.462;19.036;2022-09-09T04:17:13;99990.81;;;17.33;100.00
42431;BME280;28070;47.462;19.036;2022-09-09T04:19:42;99985.66;;;17.30;100.00
42431;BME280;28070;47.462;19.036;2022-09-09T04:22:12;99990.53;;;17.24;100.00
42431;BME280;28070;47.462;19.036;2022-09-09T04:24:40;99987.44;;;17.17;100.00
42431;BME280;28070;47.462;19.036;2022-09-09T04:27:14;99990.09;;;17.17;100.00
42431;BME280;28070;47.462;19.036;2022-09-09T04:29:42;99981.34;;;17.15;100.00
42431;BME280;28070;47.462;19.036;2022-09-09T04:32:12;99984.78;;;17.17;100.00
42431;BME280;28070;47.462;19.036;2022-09-09T04:34:40;99972.38;;;17.16;100.00
42431;BME280;28070;47.462;19.036;2022-09-09T04:37:09;99976.66;;;17.19;100.00
42431;BME280;28070;47.462;19.036;2022-09-09T04:39:39;99982.44;;;17.25;100.00
42431;BME280;28070;47.462;19.036;2022-09-09T04:42:08;99986.06;;;17.24;100.00
42431;BME280;28070;47.462;19.036;2022-09-09T04:44:36;99977.84;;;17.27;100.00
42431;BME280;28070;47.462;19.036;2022-09-09T04:47:04;99976.25;;;17.25;100.00
42431;BME280;28070;47.462;19.036;2022-09-09T04:49:32;99980.72;;;17.24;100.00
42431;BME280;28070;47.462;19.036;2022-09-09T04:52:01;99974.41;;;17.25;100.00
42431;BME280;28070;47.462;19.036;2022-09-09T04:54:30;99984.81;;;17.30;100.00
42431;BME280;28070;47.462;19.036;2022-09-09T04:57:00;99979.25;;;17.33;100.00
42431;BME280;28070;47.462;19.036;2022-09-09T04:59:28;99970.41;;;17.32;98.46
42431;BME280;28070;47.462;19.036;2022-09-09T05:01:59;99980.13;;;17.33;97.07
42431;BME280;28070;47.462;19.036;2022-09-09T05:04:28;99986.09;;;17.37;96.70
42431;BME280;28070;47.462;19.036;2022-09-09T05:06:57;99981.44;;;17.41;95.70
42431;BME280;28070;47.462;19.036;2022-09-09T05:09:26;99986.56;;;17.44;95.17
42431;BME280;28070;47.462;19.036;2022-09-09T05:11:55;99988.81;;;17.50;94.76
42431;BME280;28070;47.462;19.036;2022-09-09T05:14:29;99991.25;;;17.53;93.73
42431;BME280;28070;47.462;19.036;2022-09-09T05:17:00;99996.22;;;17.59;93.08
42431;BME280;28070;47.462;19.036;2022-09-09T05:19:28;99999.25;;;17.67;92.55
42431;BME280;28070;47.462;19.036;2022-09-09T05:21:57;99994.34;;;17.74;92.49
42431;BME280;28070;47.462;19.036;2022-09-09T05:24:32;99996.41;;;17.83;95.74
42431;BME280;28070;47.462;19.036;2022-09-09T05:27:02;99997.78;;;17.88;95.21
42431;BME280;28070;47.462;19.036;2022-09-09T05:29:34;99998.47;;;17.92;94.38
42431;BME280;28070;47.462;19.036;2022-09-09T05:32:04;99998.25;;;17.95;94.56
42431;BME280;28070;47.462;19.036;2022-09-09T05:34:34;99999.22;;;17.94;95.06
42431;BME280;28070;47.462;19.036;2022-09-09T05:37:04;99995.88;;;18.03;94.69
42431;BME280;28070;47.462;19.036;2022-09-09T05:39:35;100007.66;;;18.13;93.70
42431;BME280;28070;47.462;19.036;2022-09-09T05:42:05;100010.44;;;18.12;93.21
42431;BME280;28070;47.462;19.036;2022-09-09T05:44:34;100006.91;;;18.24;93.49
42431;BME280;28070;47.462;19.036;2022-09-09T05:47:04;100008.94;;;18.33;94.31
42431;BME280;28070;47.462;19.036;2022-09-09T05:49:33;100009.47;;;18.38;91.05
42431;BME280;28070;47.462;19.036;2022-09-09T05:52:02;100002.75;;;18.45;90.50
42431;BME280;28070;47.462;19.036;2022-09-09T05:54:31;100006.78;;;18.64;90.09
42431;BME280;28070;47.462;19.036;2022-09-09T05:56:59;100010.31;;;18.77;89.51
42431;BME280;28070;47.462;19.036;2022-09-09T05:59:28;100008.56;;;18.89;88.69
42431;BME280;28070;47.462;19.036;2022-09-09T06:01:58;100008.13;;;18.95;88.51
42431;BME280;28070;47.462;19.036;2022-09-09T06:04:32;100006.72;;;19.02;87.32
42431;BME280;28070;47.462;19.036;2022-09-09T06:07:01;100009.28;;;19.03;87.45
42431;BME280;28070;47.462;19.036;2022-09-09T06:09:29;100007.28;;;19.18;87.27
42431;BME280;28070;47.462;19.036;2022-09-09T06:11:58;100000.41;;;19.27;85.35
42431;BME280;28070;47.462;19.036;2022-09-09T06:14:26;100009.59;;;19.35;84.33
42431;BME280;28070;47.462;19.036;2022-09-09T06:16:59;100011.69;;;19.43;83.02
42431;BME280;28070;47.462;19.036;2022-09-09T06:19:29;100012.09;;;19.50;81.92
42431;BME280;28070;47.462;19.036;2022-09-09T06:21:58;100012.50;;;19.56;80.93
42431;BME280;28070;47.462;19.036;2022-09-09T06:24:29;100006.38;;;19.54;79.96
42431;BME280;28070;47.462;19.036;2022-09-09T06:27:01;100011.06;;;19.63;80.19
42431;BME280;28070;47.462;19.036;2022-09-09T06:29:32;100018.91;;;19.78;80.29
42431;BME280;28070;47.462;19.036;2022-09-09T06:32:03;100017.63;;;19.94;79.10
42431;BME280;28070;47.462;19.036;2022-09-09T06:34:31;100015.84;;;20.06;77.85
42431;BME280;28070;47.462;19.036;2022-09-09T06:37:00;100013.53;;;20.13;77.13
42431;BME280;28070;47.462;19.036;2022-09-09T06:39:34;100015.38;;;20.12;76.40
42431;BME280;28070;47.462;19.036;2022-09-09T06:42:03;100002.78;;;20.02;77.12
42431;BME280;28070;47.462;19.036;2022-09-09T06:44:54;100004.38;;;20.04;77.18
42431;BME280;28070;47.462;19.036;2022-09-09T06:47:32;100008.31;;;20.11;76.46
42431;BME280;28070;47.462;19.036;2022-09-09T06:50:02;100008.56;;;20.08;76.83
42431;BME280;28070;47.462;19.036;2022-09-09T06:52:32;100012.06;;;20.20;77.02
42431;BME280;28070;47.462;19.036;2022-09-09T06:55:02;100014.06;;;20.29;76.92
42431;BME280;28070;47.462;19.036;2022-09-09T06:57:31;100016.72;;;20.18;75.79
42431;BME280;28070;47.462;19.036;2022-09-09T07:00:09;100020.50;;;20.15;75.46
42431;BME280;28070;47.462;19.036;2022-09-09T07:02:40;100025.50;;;20.09;75.20
42431;BME280;28070;47.462;19.036;2022-09-09T07:05:09;100029.72;;;20.00;75.69
42431;BME280;28070;47.462;19.036;2022-09-09T07:07:39;100030.03;;;19.84;75.51
42431;BME280;28070;47.462;19.036;2022-09-09T07:10:10;100028.06;;;19.75;76.01
42431;BME280;28070;47.462;19.036;2022-09-09T07:12:39;100031.53;;;19.64;76.52
42431;BME280;28070;47.462;19.036;2022-09-09T07:15:09;100033.84;;;19.58;77.12
42431;BME280;28070;47.462;19.036;2022-09-09T07:17:43;100040.06;;;19.58;77.48
42431;BME280;28070;47.462;19.036;2022-09-09T07:20:11;100034.28;;;19.76;76.73
42431;BME280;28070;47.462;19.036;2022-09-09T07:22:41;100031.78;;;19.96;78.64
42431;BME280;28070;47.462;19.036;2022-09-09T07:25:10;100034.88;;;20.14;80.64
42431;BME280;28070;47.462;19.036;2022-09-09T07:27:38;100035.03;;;20.24;80.53
42431;BME280;28070;47.462;19.036;2022-09-09T07:30:09;100033.81;;;20.28;80.40
42431;BME280;28070;47.462;19.036;2022-09-09T07:32:46;100031.13;;;20.39;78.24
42431;BME280;28070;47.462;19.036;2022-09-09T07:35:15;100044.91;;;20.23;73.89
42431;BME280;28070;47.462;19.036;2022-09-09T07:37:43;100044.66;;;20.26;72.93
42431;BME280;28070;47.462;19.036;2022-09-09T07:40:17;100042.00;;;20.38;73.36
42431;BME280;28070;47.462;19.036;2022-09-09T07:42:50;100037.41;;;20.51;72.91
42431;BME280;28070;47.462;19.036;2022-09-09T07:45:18;100043.88;;;20.60;72.84
42431;BME280;28070;47.462;19.036;2022-09-09T07:47:47;100051.44;;;20.66;72.01
42431;BME280;28070;47.462;19.036;2022-09-09T07:50:17;100042.78;;;20.73;71.56
42431;BME280;28070;47.462;19.036;2022-09-09T07:52:45;100048.75;;;20.88;70.92
42431;BME280;28070;47.462;19.036;2022-09-09T07:55:13;100048.50;;;20.91;67.63
42431;BME280;28070;47.462;19.036;2022-09-09T07:57:42;100049.72;;;20.98;65.04
42431;BME280;28070;47.462;19.036;2022-09-09T08:00:11;100040.56;;;21.01;64.80
42431;BME280;28070;47.462;19.036;2022-09-09T08:02:45;100045.69;;;21.04;63.38
42431;BME280;28070;47.462;19.036;2022-09-09T08:05:15;100040.56;;;21.12;63.67
42431;BME280;28070;47.462;19.036;2022-09-09T08:07:44;100040.31;;;21.26;63.75
42431;BME280;28070;47.462;19.036;2022-09-09T08:10:12;100035.41;;;21.31;63.23
42431;BME280;28070;47.462;19.036;2022-09-09T08:12:41;100042.72;;;21.40;61.61
42431;BME280;28070;47.462;19.036;2022-09-09T08:15:29;100039.41;;;21.48;61.93
42431;BME280;28070;47.462;19.036;2022-09-09T08:17:58;100039.13;;;21.51;60.66
42431;BME280;28070;47.462;19.036;2022-09-09T08:20:28;100043.13;;;21.57;59.71
42431;BME280;28070;47.462;19.036;2022-09-09T08:22:56;100040.94;;;21.62;59.55
42431;BME280;28070;47.462;19.036;2022-09-09T08:25:25;100042.47;;;21.76;59.79
42431;BME280;28070;47.462;19.036;2022-09-09T08:27:53;100037.09;;;21.76;58.14
42431;BME280;28070;47.462;19.036;2022-09-09T08:30:22;100039.97;;;21.84;58.96
42431;BME280;28070;47.462;19.036;2022-09-09T08:32:51;100029.97;;;21.86;58.77
42431;BME280;28070;47.462;19.036;2022-09-09T08:35:21;100033.31;;;21.99;58.85
42431;BME280;28070;47.462;19.036;2022-09-09T08:37:54;100039.16;;;22.04;57.76
42431;BME280;28070;47.462;19.036;2022-09-09T08:40:28;100035.22;;;22.08;57.27
42431;BME280;28070;47.462;19.036;2022-09-09T08:42:58;100041.94;;;22.14;56.45
42431;BME280;28070;47.462;19.036;2022-09-09T08:45:33;100045.66;;;22.22;54.75
42431;BME280;28070;47.462;19.036;2022-09-09T08:48:15;100041.19;;;22.32;54.86
42431;BME280;28070;47.462;19.036;2022-09-09T08:50:49;100042.97;;;22.43;54.43
42431;BME280;28070;47.462;19.036;2022-09-09T08:53:28;100047.09;;;22.47;54.44
42431;BME280;28070;47.462;19.036;2022-09-09T08:56:02;100048.28;;;22.54;54.09
42431;BME280;28070;47.462;19.036;2022-09-09T08:58:46;100043.19;;;22.61;52.07
42431;BME280;28070;47.462;19.036;2022-09-09T09:01:32;100041.25;;;22.73;50.78
42431;BME280;28070;47.462;19.036;2022-09-09T09:04:11;100045.59;;;22.85;51.24
42431;BME280;28070;47.462;19.036;2022-09-09T09:06:50;100039.84;;;22.99;49.84
42431;BME280;28070;47.462;19.036;2022-09-09T09:09:30;100037.31;;;23.07;49.17
42431;BME280;28070;47.462;19.036;2022-09-09T09:12:06;100030.25;;;23.16;49.45
42431;BME280;28070;47.462;19.036;2022-09-09T09:14:37;100039.47;;;23.23;46.63
42431;BME280;28070;47.462;19.036;2022-09-09T09:17:12;100037.09;;;23.30;49.69
42431;BME280;28070;47.462;19.036;2022-09-09T09:19:42;100039.66;;;23.31;55.17
42431;BME280;28070;47.462;19.036;2022-09-09T09:22:17;100025.06;;;23.43;54.78
42431;BME280;28070;47.462;19.036;2022-09-09T09:24:54;100023.63;;;23.49;54.49
42431;BME280;28070;47.462;19.036;2022-09-09T09:27:31;100013.59;;;23.51;53.86
42431;BME280;28070;47.462;19.036;2022-09-09T09:30:13;100010.88;;;23.51;54.10
42431;BME280;28070;47.462;19.036;2022-09-09T09:33:06;100000.38;;;23.48;52.62
42431;BME280;28070;47.462;19.036;2022-09-09T09:35:38;100006.94;;;23.65;52.17
42431;BME280;28070;47.462;19.036;2022-09-09T09:38:16;100006.53;;;23.79;52.07
42431;BME280;28070;47.462;19.036;2022-09-09T09:41:08;100013.72;;;23.88;51.44
42431;BME280;28070;47.462;19.036;2022-09-09T09:43:40;100010.47;;;23.75;45.76
42431;BME280;28070;47.462;19.036;2022-09-09T09:46:19;100013.16;;;23.85;45.31
42431;BME280;28070;47.462;19.036;2022-09-09T09:48:59;100018.56;;;23.94;44.67
42431;BME280;28070;47.462;19.036;2022-09-09T09:51:30;100006.78;;;23.95;43.95
42431;BME280;28070;47.462;19.036;2022-09-09T09:54:09;100013.13;;;24.14;44.17
42431;BME280;28070;47.462;19.036;2022-09-09T09:56:46;100016.56;;;24.16;42.87
42431;BME280;28070;47.462;19.036;2022-09-09T09:59:23;100021.78;;;24.27;42.90
42431;BME280;28070;47.462;19.036;2022-09-09T10:02:23;100017.50;;;24.24;43.32
42431;BME280;28070;47.462;19.036;2022-09-09T10:05:03;100013.97;;;24.24;42.67
42431;BME280;28070;47.462;19.036;2022-09-09T10:07:34;100013.09;;;24.43;43.30
42431;BME280;28070;47.462;19.036;2022-09-09T10:10:05;100017.22;;;24.37;42.58
42431;BME280;28070;47.462;19.036;2022-09-09T10:12:43;100009.72;;;24.41;42.55
42431;BME280;28070;47.462;19.036;2022-09-09T10:15:28;100003.41;;;24.50;43.26
42431;BME280;28070;47.462;19.036;2022-09-09T10:18:06;100004.59;;;24.75;43.71
42431;BME280;28070;47.462;19.036;2022-09-09T10:20:46;100010.06;;;24.92;40.84
42431;BME280;28070;47.462;19.036;2022-09-09T10:23:34;100009.63;;;24.87;40.73
42431;BME280;28070;47.462;19.036;2022-09-09T10:26:20;100008.78;;;24.87;41.26
42431;BME280;28070;47.462;19.036;2022-09-09T10:29:07;100008.94;;;24.85;39.42
42431;BME280;28070;47.462;19.036;2022-09-09T10:31:40;100003.97;;;24.90;39.06
42431;BME280;28070;47.462;19.036;2022-09-09T10:34:19;100007.75;;;24.98;38.36
42431;BME280;28070;47.462;19.036;2022-09-09T10:36:54;100011.13;;;25.09;38.77
42431;BME280;28070;47.462;19.036;2022-09-09T10:39:32;100015.84;;;25.07;37.60
42431;BME280;28070;47.462;19.036;2022-09-09T10:42:09;100013.50;;;25.12;36.23
42431;BME280;28070;47.462;19.036;2022-09-09T10:44:49;100016.06;;;25.14;36.89
42431;BME280;28070;47.462;19.036;2022-09-09T10:50:27;100005.66;;;25.19;37.07
42431;BME280;28070;47.462;19.036;2022-09-09T10:53:24;100007.44;;;25.28;38.02
42431;BME280;28070;47.462;19.036;2022-09-09T10:55:59;100004.72;;;25.10;35.69
42431;BME280;28070;47.462;19.036;2022-09-09T10:58:35;100008.72;;;25.06;35.49
42431;BME280;28070;47.462;19.036;2022-09-09T11:01:13;100004.72;;;25.10;35.96
42431;BME280;28070;47.462;19.036;2022-09-09T11:03:48;100004.19;;;25.24;35.53
42431;BME280;28070;47.462;19.036;2022-09-09T11:06:22;100001.19;;;25.28;37.16
42431;BME280;28070;47.462;19.036;2022-09-09T11:08:52;100000.59;;;25.34;37.21
42431;BME280;28070;47.462;19.036;2022-09-09T11:11:27;99999.88;;;25.32;37.24
42431;BME280;28070;47.462;19.036;2022-09-09T11:13:59;99996.75;;;25.54;37.67
42431;BME280;28070;47.462;19.036;2022-09-09T11:16:35;99993.09;;;25.63;36.17
42431;BME280;28070;47.462;19.036;2022-09-09T11:19:14;99997.31;;;25.66;35.42
42431;BME280;28070;47.462;19.036;2022-09-09T11:21:46;99990.88;;;25.76;37.03
42431;BME280;28070;47.462;19.036;2022-09-09T11:24:22;99998.50;;;25.63;38.14
42431;BME280;28070;47.462;19.036;2022-09-09T11:26:55;99996.59;;;25.73;37.92
42431;BME280;28070;47.462;19.036;2022-09-09T11:32:34;99995.09;;;26.40;38.36
42431;BME280;28070;47.462;19.036;2022-09-09T11:35:21;99997.47;;;26.69;36.66
42431;BME280;28070;47.462;19.036;2022-09-09T11:38:19;99995.72;;;26.60;35.63
42431;BME280;28070;47.462;19.036;2022-09-09T11:40:54;99994.69;;;26.61;36.03
42431;BME280;28070;47.462;19.036;2022-09-09T11:43:28;99999.09;;;26.62;36.00
42431;BME280;28070;47.462;19.036;2022-09-09T11:45:59;99990.47;;;26.59;36.30
42431;BME280;28070;47.462;19.036;2022-09-09T11:48:33;99985.38;;;26.64;36.49
42431;BME280;28070;47.462;19.036;2022-09-09T11:51:06;99985.72;;;26.61;36.68
42431;BME280;28070;47.462;19.036;2022-09-09T11:53:51;99981.16;;;27.04;35.62
42431;BME280;28070;47.462;19.036;2022-09-09T11:56:27;99984.69;;;27.46;34.79
42431;BME280;28070;47.462;19.036;2022-09-09T11:59:00;99977.38;;;27.39;35.46
42431;BME280;28070;47.462;19.036;2022-09-09T12:01:41;99979.94;;;27.48;35.58
42431;BME280;28070;47.462;19.036;2022-09-09T12:04:30;99977.38;;;27.47;35.01
42431;BME280;28070;47.462;19.036;2022-09-09T12:07:02;99975.38;;;27.57;34.39
42431;BME280;28070;47.462;19.036;2022-09-09T12:09:38;99985.19;;;27.58;34.44
42431;BME280;28070;47.462;19.036;2022-09-09T12:12:27;99993.47;;;27.40;36.33
42431;BME280;28070;47.462;19.036;2022-09-09T12:15:02;99996.66;;;27.27;37.02
42431;BME280;28070;47.462;19.036;2022-09-09T12:17:31;99996.59;;;27.03;37.38
42431;BME280;28070;47.462;19.036;2022-09-09T12:20:08;99992.13;;;26.94;38.05
42431;BME280;28070;47.462;19.036;2022-09-09T12:25:34;99989.16;;;27.13;37.89
42431;BME280;28070;47.462;19.036;2022-09-09T12:28:10;99979.41;;;27.45;37.22
42431;BME280;28070;47.462;19.036;2022-09-09T12:30:46;99973.69;;;27.64;36.21
42431;BME280;28070;47.462;19.036;2022-09-09T12:33:18;99973.81;;;27.38;37.69
42431;BME280;28070;47.462;19.036;2022-09-09T12:35:53;99962.09;;;27.21;37.60
42431;BME280;28070;47.462;19.036;2022-09-09T12:38:29;99961.78;;;27.33;37.64
42431;BME280;28070;47.462;19.036;2022-09-09T12:40:58;99969.22;;;27.55;37.35
42431;BME280;28070;47.462;19.036;2022-09-09T12:43:28;99968.56;;;27.61;36.65
42431;BME280;28070;47.462;19.036;2022-09-09T12:45:59;99959.09;;;27.98;36.36
42431;BME280;28070;47.462;19.036;2022-09-09T12:48:34;99966.06;;;28.00;36.50
42431;BME280;28070;47.462;19.036;2022-09-09T12:51:15;99959.78;;;27.92;36.33
42431;BME280;28070;47.462;19.036;2022-09-09T12:53:45;99961.63;;;27.99;36.03
42431;BME280;28070;47.462;19.036;2022-09-09T12:56:19;99955.69;;;27.79;36.88
42431;BME280;28070;47.462;19.036;2022-09-09T12:58:50;99950.59;;;27.52;37.37
42431;BME280;28070;47.462;19.036;2022-09-09T13:01:22;99950.81;;;27.75;36.77
42431;BME280;28070;47.462;19.036;2022-09-09T13:03:51;99947.03;;;28.08;35.33
42431;BME280;28070;47.462;19.036;2022-09-09T13:06:23;99947.31;;;28.46;35.40
42431;BME280;28070;47.462;19.036;2022-09-09T13:08:56;99929.25;;;29.00;34.14
42431;BME280;28070;47.462;19.036;2022-09-09T13:11:29;99926.44;;;28.78;34.01
42431;BME280;28070;47.462;19.036;2022-09-09T13:13:59;99929.16;;;28.47;34.96
42431;BME280;28070;47.462;19.036;2022-09-09T13:16:29;99928.44;;;28.44;35.38
42431;BME280;28070;47.462;19.036;2022-09-09T13:19:02;99930.38;;;28.28;34.03
42431;BME280;28070;47.462;19.036;2022-09-09T13:21:37;99922.53;;;28.80;33.53
42431;BME280;28070;47.462;19.036;2022-09-09T13:24:20;99925.31;;;28.64;32.57
42431;BME280;28070;47.462;19.036;2022-09-09T13:26:54;99918.47;;;29.07;32.22
42431;BME280;28070;47.462;19.036;2022-09-09T13:29:23;99924.06;;;29.14;31.96
42431;BME280;28070;47.462;19.036;2022-09-09T13:31:52;99928.97;;;29.18;29.88